createdAt,value
2023-12-15T00:02:01.140Z,7.97
2023-12-15T00:04:29.202Z,8.60
2023-12-15T00:06:57.041Z,7.97
2023-12-15T00:09:25.920Z,7.17
2023-12-15T00:11:53.818Z,8.20
2023-12-15T00:14:21.830Z,7.62
2023-12-15T00:16:49.905Z,7.50
2023-12-15T00:19:17.897Z,7.12
2023-12-15T00:21:45.877Z,6.90
2023-12-15T00:24:13.917Z,6.92
2023-12-15T00:26:41.803Z,6.50
2023-12-15T00:29:09.668Z,7.62
2023-12-15T00:31:37.492Z,8.23
2023-12-15T00:34:05.482Z,7.67
2023-12-15T00:36:33.394Z,7.50
2023-12-15T00:39:02.046Z,7.40
2023-12-15T00:41:30.221Z,8.15
2023-12-15T00:43:58.109Z,8.78
2023-12-15T00:46:25.919Z,8.60
2023-12-15T00:48:53.816Z,7.70
2023-12-15T00:51:21.920Z,8.60
2023-12-15T00:53:49.928Z,7.75
2023-12-15T00:56:17.942Z,8.28
2023-12-15T00:58:45.948Z,8.03
2023-12-15T01:01:13.842Z,9.25
2023-12-15T01:03:41.869Z,7.97
2023-12-15T01:06:09.947Z,9.33
2023-12-15T01:08:38.050Z,8.38
2023-12-15T01:11:06.524Z,8.10
2023-12-15T01:13:34.486Z,8.05
2023-12-15T01:16:07.823Z,8.50
2023-12-15T01:18:35.830Z,8.90
2023-12-15T01:21:04.575Z,9.13
2023-12-15T01:23:32.579Z,10.48
2023-12-15T01:26:00.541Z,9.55
2023-12-15T01:28:28.563Z,10.80
2023-12-15T01:30:56.485Z,11.60
2023-12-15T01:33:24.381Z,11.05
2023-12-15T01:35:52.254Z,11.18
2023-12-15T01:38:20.302Z,10.15
2023-12-15T01:40:48.097Z,15.23
2023-12-15T01:43:16.093Z,10.85
2023-12-15T01:45:44.039Z,11.25
2023-12-15T01:48:12.285Z,12.45
2023-12-15T01:50:40.548Z,12.13
2023-12-15T01:53:08.973Z,10.93
2023-12-15T01:55:36.855Z,10.35
2023-12-15T01:58:04.742Z,10.58
2023-12-15T02:00:32.625Z,10.88
2023-12-15T02:03:00.436Z,11.35
2023-12-15T02:05:28.835Z,10.85
2023-12-15T02:07:56.856Z,10.85
2023-12-15T02:10:24.846Z,11.93
2023-12-15T02:12:53.051Z,11.83
2023-12-15T02:15:21.061Z,12.23
2023-12-15T02:17:49.078Z,11.90
2023-12-15T02:20:17.276Z,11.80
2023-12-15T02:22:45.107Z,10.72
2023-12-15T02:25:13.172Z,11.33
2023-12-15T02:27:41.147Z,11.03
2023-12-15T02:30:09.864Z,10.70
2023-12-15T02:32:38.097Z,10.75
2023-12-15T02:35:06.480Z,11.38
2023-12-15T02:37:34.569Z,11.95
2023-12-15T02:40:02.956Z,12.20
2023-12-15T02:42:31.021Z,12.23
2023-12-15T02:45:01.342Z,13.85
2023-12-15T02:47:29.582Z,13.50
2023-12-15T02:49:57.689Z,13.18
2023-12-15T02:52:28.820Z,11.97
2023-12-15T02:54:56.980Z,10.68
2023-12-15T02:57:24.884Z,12.28
2023-12-15T02:59:52.861Z,12.65
2023-12-15T03:02:20.882Z,12.90
2023-12-15T03:04:48.738Z,12.30
2023-12-15T03:07:16.857Z,12.45
2023-12-15T03:09:44.776Z,12.13
2023-12-15T03:12:12.835Z,13.00
2023-12-15T03:14:40.744Z,13.45
2023-12-15T03:17:08.870Z,13.40
2023-12-15T03:19:39.961Z,12.50
2023-12-15T03:22:08.049Z,12.70
2023-12-15T03:24:36.088Z,13.10
2023-12-15T03:27:04.429Z,11.75
2023-12-15T03:29:32.400Z,12.00
2023-12-15T03:32:00.260Z,11.88
2023-12-15T03:34:28.036Z,11.90
2023-12-15T03:36:56.117Z,11.38
2023-12-15T03:39:24.161Z,10.93
2023-12-15T03:41:51.957Z,11.38
2023-12-15T03:44:19.815Z,11.75
2023-12-15T03:46:47.749Z,11.78
2023-12-15T03:49:15.556Z,12.45
2023-12-15T03:51:43.378Z,12.18
2023-12-15T03:54:11.530Z,12.33
2023-12-15T03:56:39.300Z,12.00
2023-12-15T03:59:07.195Z,12.30
2023-12-15T04:01:35.312Z,11.85
2023-12-15T04:04:03.211Z,17.48
2023-12-15T04:06:31.119Z,12.88
2023-12-15T04:08:59.048Z,11.95
2023-12-15T04:11:27.119Z,12.85
2023-12-15T04:13:55.752Z,12.30
2023-12-15T04:16:23.592Z,12.33
2023-12-15T04:18:51.908Z,12.03
2023-12-15T04:21:20.162Z,12.03
2023-12-15T04:23:48.107Z,12.40
2023-12-15T04:26:16.163Z,12.33
2023-12-15T04:28:47.137Z,12.43
2023-12-15T04:31:16.076Z,12.65
2023-12-15T04:33:43.784Z,12.58
2023-12-15T04:36:11.812Z,12.50
2023-12-15T04:38:39.537Z,14.98
2023-12-15T04:41:07.467Z,13.78
2023-12-15T04:43:35.049Z,12.00
2023-12-15T04:46:02.905Z,12.78
2023-12-15T04:48:32.747Z,12.43
2023-12-15T04:51:00.152Z,14.55
2023-12-15T04:53:27.830Z,12.63
2023-12-15T04:55:55.368Z,15.05
2023-12-15T04:58:22.916Z,14.28
2023-12-15T05:00:50.783Z,14.00
2023-12-15T05:03:18.395Z,13.48
2023-12-15T05:05:47.963Z,12.28
2023-12-15T05:08:15.458Z,11.80
2023-12-15T05:10:43.434Z,12.80
2023-12-15T05:13:10.932Z,12.35
2023-12-15T05:15:38.433Z,13.58
2023-12-15T05:18:06.531Z,13.18
2023-12-15T05:20:39.527Z,12.20
2023-12-15T05:23:06.885Z,13.88
2023-12-15T05:25:34.761Z,17.27
2023-12-15T05:28:02.261Z,15.88
2023-12-15T05:30:30.081Z,17.42
2023-12-15T05:32:57.698Z,16.95
2023-12-15T05:35:25.677Z,13.10
2023-12-15T05:37:54.318Z,14.40
2023-12-15T05:40:22.226Z,14.05
2023-12-15T05:42:49.919Z,15.30
2023-12-15T05:45:17.598Z,14.10
2023-12-15T05:47:45.649Z,14.05
2023-12-15T05:50:13.962Z,16.02
2023-12-15T05:52:41.871Z,15.05
2023-12-15T05:55:09.764Z,16.05
2023-12-15T05:57:38.720Z,16.60
2023-12-15T06:00:09.554Z,16.00
2023-12-15T06:02:37.296Z,14.20
2023-12-15T06:05:05.928Z,14.90
2023-12-15T06:07:34.919Z,15.30
2023-12-15T06:10:02.451Z,15.58
2023-12-15T06:12:29.912Z,13.53
2023-12-15T06:14:57.950Z,15.78
2023-12-15T06:17:25.873Z,15.18
2023-12-15T06:19:53.757Z,14.47
2023-12-15T06:22:21.176Z,17.20
2023-12-15T06:24:48.679Z,18.30
2023-12-15T06:27:16.686Z,19.27
2023-12-15T06:29:44.212Z,20.08
2023-12-15T06:32:13.142Z,20.52
2023-12-15T06:34:43.109Z,19.00
2023-12-15T06:37:11.118Z,17.65
2023-12-15T06:39:38.668Z,13.78
2023-12-15T06:42:06.537Z,16.90
2023-12-15T06:44:34.263Z,14.23
2023-12-15T06:47:02.201Z,17.67
2023-12-15T06:49:32.690Z,20.45
2023-12-15T06:52:01.296Z,18.07
2023-12-15T06:54:28.985Z,18.90
2023-12-15T06:56:58.132Z,18.85
2023-12-15T06:59:31.970Z,18.82
2023-12-15T07:02:01.161Z,19.42
2023-12-15T07:04:29.268Z,19.57
2023-12-15T07:06:57.263Z,24.65
2023-12-15T07:09:24.905Z,21.23
2023-12-15T07:11:52.920Z,17.55
2023-12-15T07:14:20.891Z,24.80
2023-12-15T07:16:48.252Z,16.90
2023-12-15T07:19:15.839Z,17.80
2023-12-15T07:21:43.850Z,20.15
2023-12-15T07:24:11.592Z,17.82
2023-12-15T07:26:39.479Z,16.80
2023-12-15T07:29:06.981Z,18.55
2023-12-15T07:31:37.926Z,19.25
2023-12-15T07:34:06.210Z,19.12
2023-12-15T07:36:35.925Z,23.77
2023-12-15T07:39:03.710Z,21.65
2023-12-15T07:41:31.620Z,20.92
2023-12-15T07:44:01.064Z,25.20
2023-12-15T07:46:28.479Z,24.18
2023-12-15T07:48:56.411Z,23.75
2023-12-15T07:51:24.029Z,23.70
2023-12-15T07:53:51.713Z,20.17
2023-12-15T07:56:25.276Z,17.23
2023-12-15T07:58:56.575Z,17.42
2023-12-15T08:01:25.352Z,16.15
2023-12-15T08:03:53.184Z,12.95
2023-12-15T08:06:21.102Z,10.78
2023-12-15T08:08:52.758Z,10.90
2023-12-15T08:11:21.373Z,10.85
2023-12-15T08:13:49.588Z,10.63
2023-12-15T08:16:17.479Z,12.98
2023-12-15T08:18:45.471Z,11.45
2023-12-15T08:21:13.458Z,12.60
2023-12-15T08:23:41.304Z,12.65
2023-12-15T08:26:09.195Z,12.10
2023-12-15T08:28:37.126Z,22.05
2023-12-15T08:31:05.197Z,37.78
2023-12-15T08:33:32.950Z,14.25
2023-12-15T08:36:00.467Z,43.95
2023-12-15T08:38:27.980Z,11.80
2023-12-15T08:40:55.741Z,13.15
2023-12-15T08:43:23.311Z,12.43
2023-12-15T08:45:50.935Z,10.50
2023-12-15T08:48:18.820Z,10.13
2023-12-15T08:50:47.131Z,9.73
2023-12-15T08:53:16.916Z,11.57
2023-12-15T08:55:45.377Z,13.13
2023-12-15T08:58:14.611Z,17.65
2023-12-15T09:00:43.176Z,13.05
2023-12-15T09:03:10.768Z,13.62
2023-12-15T09:05:58.311Z,18.50
2023-12-15T09:08:08.123Z,13.03
2023-12-15T09:10:38.044Z,17.30
2023-12-15T09:13:05.861Z,11.30
2023-12-15T09:15:33.330Z,10.88
2023-12-15T09:18:01.648Z,12.03
2023-12-15T09:20:29.991Z,11.38
2023-12-15T09:22:58.002Z,9.75
2023-12-15T09:25:25.965Z,17.40
2023-12-15T09:28:04.930Z,11.00
2023-12-15T09:30:33.627Z,10.38
2023-12-15T09:33:01.805Z,11.03
2023-12-15T09:35:29.577Z,13.03
2023-12-15T09:37:57.222Z,13.68
2023-12-15T09:40:27.739Z,11.48
2023-12-15T09:42:55.209Z,13.90
2023-12-15T09:45:22.846Z,16.40
2023-12-15T09:47:51.601Z,10.28
2023-12-15T09:50:22.640Z,12.70
2023-12-15T09:52:51.554Z,10.60
2023-12-15T09:55:20.125Z,11.28
2023-12-15T09:57:48.620Z,10.25
2023-12-15T10:00:17.361Z,9.98
2023-12-15T10:02:45.438Z,10.80
2023-12-15T10:05:14.498Z,11.63
2023-12-15T10:07:42.051Z,11.90
2023-12-15T10:10:09.862Z,10.98
2023-12-15T10:12:38.065Z,10.60
2023-12-15T10:15:07.593Z,9.80
2023-12-15T10:17:37.731Z,10.13
2023-12-15T10:20:10.571Z,11.28
2023-12-15T10:22:41.527Z,12.55
2023-12-15T10:25:17.437Z,10.40
2023-12-15T10:27:45.045Z,9.73
2023-12-15T10:30:13.997Z,9.80
2023-12-15T10:32:44.588Z,10.65
2023-12-15T10:35:15.003Z,10.70
2023-12-15T10:37:44.095Z,11.75
2023-12-15T10:40:12.908Z,10.55
2023-12-15T10:42:42.417Z,14.25
2023-12-15T10:45:11.017Z,12.82
2023-12-15T10:47:41.558Z,13.80
2023-12-15T10:50:10.281Z,16.55
2023-12-15T10:52:38.353Z,17.85
2023-12-15T10:55:08.089Z,11.40
2023-12-15T10:57:35.723Z,11.70
2023-12-15T11:00:06.551Z,11.35
2023-12-15T11:02:38.097Z,11.78
2023-12-15T11:05:11.467Z,12.35
2023-12-15T11:07:41.493Z,9.75
2023-12-15T11:10:12.540Z,10.08
2023-12-15T11:12:42.194Z,13.32
2023-12-15T11:15:13.151Z,12.35
2023-12-15T11:17:50.729Z,11.20
2023-12-15T11:20:27.470Z,13.65
2023-12-15T11:23:11.708Z,13.20
2023-12-15T11:25:57.172Z,12.85
2023-12-15T11:28:25.315Z,12.43
2023-12-15T11:30:53.416Z,15.50
2023-12-15T11:33:40.276Z,12.33
2023-12-15T11:36:17.607Z,14.30
2023-12-15T11:38:50.698Z,13.93
2023-12-15T11:41:20.135Z,13.20
2023-12-15T11:43:51.925Z,10.98
2023-12-15T11:46:21.727Z,10.25
2023-12-15T11:48:52.458Z,13.20
2023-12-15T11:51:31.538Z,12.25
2023-12-15T11:54:10.389Z,9.05
2023-12-15T11:56:38.565Z,8.68
2023-12-15T11:59:08.224Z,11.53
2023-12-15T12:01:40.036Z,12.28
2023-12-15T12:04:19.488Z,11.75
2023-12-15T12:06:50.363Z,10.45
2023-12-15T12:09:18.733Z,7.55
2023-12-15T12:11:47.248Z,17.65
2023-12-15T12:14:15.877Z,12.60
2023-12-15T12:16:53.718Z,11.70
2023-12-15T12:19:25.600Z,10.20
2023-12-15T12:21:55.532Z,7.78
2023-12-15T12:24:28.209Z,9.98
2023-12-15T12:26:55.742Z,12.55
2023-12-15T12:29:23.317Z,10.13
2023-12-15T12:31:50.694Z,9.70
2023-12-15T12:34:18.273Z,11.68
2023-12-15T12:36:46.057Z,12.23
2023-12-15T12:39:13.832Z,10.60
2023-12-15T12:41:41.504Z,10.13
2023-12-15T12:44:09.783Z,9.65
2023-12-15T12:46:38.070Z,8.63
2023-12-15T12:49:05.648Z,8.88
2023-12-15T12:51:33.758Z,9.10
2023-12-15T12:54:02.745Z,11.22
2023-12-15T12:56:30.317Z,13.50
2023-12-15T12:59:01.003Z,12.63
2023-12-15T13:01:29.166Z,14.05
2023-12-15T13:03:57.510Z,11.63
2023-12-15T13:06:25.246Z,10.63
2023-12-15T13:08:52.572Z,11.90
2023-12-15T13:11:22.263Z,14.20
2023-12-15T13:13:52.781Z,11.73
2023-12-15T13:16:20.286Z,10.63
2023-12-15T13:18:49.378Z,12.18
2023-12-15T13:21:20.147Z,13.60
2023-12-15T13:23:49.717Z,11.93
2023-12-15T13:26:17.367Z,12.88
2023-12-15T13:28:45.061Z,12.85
2023-12-15T13:31:12.780Z,12.65
2023-12-15T13:33:42.148Z,14.18
2023-12-15T13:36:16.061Z,11.97
2023-12-15T13:38:47.655Z,12.28
2023-12-15T13:41:15.927Z,13.78
2023-12-15T13:43:45.005Z,17.02
2023-12-15T13:46:12.771Z,13.50
2023-12-15T13:48:41.098Z,15.10
2023-12-15T13:51:09.739Z,12.65
2023-12-15T13:53:37.542Z,14.43
2023-12-15T13:56:05.767Z,14.90
2023-12-15T13:58:34.429Z,13.60
2023-12-15T14:01:02.595Z,12.95
2023-12-15T14:03:31.068Z,14.58
2023-12-15T14:05:58.890Z,14.18
2023-12-15T14:08:26.908Z,14.28
2023-12-15T14:11:04.536Z,11.50
2023-12-15T14:13:37.885Z,12.13
2023-12-15T14:16:10.369Z,13.03
2023-12-15T14:18:40.175Z,11.80
2023-12-15T14:21:08.454Z,16.48
2023-12-15T14:23:37.249Z,12.43
2023-12-15T14:26:05.575Z,16.00
2023-12-15T14:28:33.738Z,18.05
2023-12-15T14:31:01.831Z,25.50
2023-12-15T14:33:30.347Z,20.23
2023-12-15T14:35:58.364Z,14.55
2023-12-15T14:38:27.435Z,15.55
2023-12-15T14:40:55.425Z,14.80
2023-12-15T14:43:23.440Z,14.13
2023-12-15T14:45:53.204Z,14.25
2023-12-15T14:48:28.110Z,19.12
2023-12-15T14:50:58.175Z,12.75
2023-12-15T14:53:31.919Z,11.68
2023-12-15T14:55:59.880Z,11.57
2023-12-15T14:58:27.783Z,11.65
2023-12-15T15:00:55.657Z,13.88
2023-12-15T15:03:23.534Z,13.30
2023-12-15T15:05:51.920Z,15.60
2023-12-15T15:08:19.936Z,11.83
2023-12-15T15:10:47.889Z,14.63
2023-12-15T15:13:18.303Z,16.25
2023-12-15T15:15:47.027Z,17.30
2023-12-15T15:18:15.270Z,16.70
2023-12-15T15:20:44.868Z,19.17
2023-12-15T15:23:13.045Z,18.07
2023-12-15T15:25:41.309Z,14.13
2023-12-15T15:28:09.221Z,17.82
2023-12-15T15:30:39.024Z,18.20
2023-12-15T15:33:07.215Z,16.20
2023-12-15T15:35:37.205Z,17.00
2023-12-15T15:38:08.815Z,22.05
2023-12-15T15:40:36.534Z,21.02
2023-12-15T15:43:05.040Z,20.17
2023-12-15T15:45:33.495Z,19.90
2023-12-15T15:48:01.954Z,13.68
2023-12-15T15:50:30.035Z,13.35
2023-12-15T15:52:57.906Z,14.07
2023-12-15T15:55:26.144Z,17.55
2023-12-15T15:57:56.237Z,17.67
2023-12-15T16:00:24.346Z,18.12
2023-12-15T16:02:52.333Z,14.30
2023-12-15T16:05:21.309Z,14.07
2023-12-15T16:08:02.738Z,21.82
2023-12-15T16:10:44.345Z,14.60
2023-12-15T16:13:02.829Z,13.93
2023-12-15T16:15:35.446Z,13.48
2023-12-15T16:18:07.653Z,13.60
2023-12-15T16:20:36.534Z,15.88
2023-12-15T16:23:10.630Z,17.02
2023-12-15T16:25:39.131Z,18.05
2023-12-15T16:28:08.242Z,20.27
2023-12-15T16:30:37.205Z,19.00
2023-12-15T16:33:05.306Z,21.87
2023-12-15T16:35:33.393Z,30.02
2023-12-15T16:38:02.195Z,19.87
2023-12-15T16:40:30.271Z,14.73
2023-12-15T16:42:58.292Z,14.05
2023-12-15T16:45:28.165Z,16.17
2023-12-15T16:47:58.750Z,17.50
2023-12-15T16:50:26.656Z,13.75
2023-12-15T16:52:54.378Z,16.48
2023-12-15T16:55:26.823Z,16.10
2023-12-15T16:57:57.767Z,13.25
2023-12-15T17:00:26.082Z,12.88
2023-12-15T17:02:54.114Z,12.00
2023-12-15T17:05:21.879Z,12.35
2023-12-15T17:07:49.662Z,16.62
2023-12-15T17:10:17.827Z,17.42
2023-12-15T17:12:46.324Z,15.03
2023-12-15T17:15:14.413Z,13.98
2023-12-15T17:17:48.297Z,16.67
2023-12-15T17:20:12.339Z,16.37
2023-12-15T17:22:40.403Z,15.32
2023-12-15T17:25:09.501Z,14.45
2023-12-15T17:27:39.170Z,15.65
2023-12-15T17:30:10.296Z,14.70
2023-12-15T17:32:38.198Z,21.35
2023-12-15T17:35:07.617Z,16.67
2023-12-15T17:37:35.915Z,15.55
2023-12-15T17:40:06.460Z,16.37
2023-12-15T17:42:34.667Z,16.12
2023-12-15T17:45:03.121Z,16.40
2023-12-15T17:47:30.970Z,18.73
2023-12-15T17:49:58.973Z,16.10
2023-12-15T17:52:27.128Z,13.43
2023-12-15T17:54:55.088Z,16.27
2023-12-15T17:57:23.596Z,18.15
2023-12-15T17:59:51.472Z,17.50
2023-12-15T18:02:19.432Z,16.40
2023-12-15T18:04:47.374Z,14.35
2023-12-15T18:07:15.510Z,15.63
2023-12-15T18:09:43.567Z,17.07
2023-12-15T18:12:12.216Z,18.40
2023-12-15T18:14:41.372Z,16.25
2023-12-15T18:17:10.334Z,17.32
2023-12-15T18:19:40.052Z,18.17
2023-12-15T18:22:09.695Z,22.05
2023-12-15T18:24:43.846Z,27.73
2023-12-15T18:27:12.023Z,23.32
2023-12-15T18:29:39.948Z,18.25
2023-12-15T18:32:07.953Z,16.67
2023-12-15T18:34:36.182Z,23.18
2023-12-15T18:37:05.370Z,26.60
2023-12-15T18:39:34.063Z,33.15
2023-12-15T18:42:03.057Z,29.57
2023-12-15T18:44:32.195Z,27.93
2023-12-15T18:47:00.004Z,23.83
2023-12-15T18:49:28.134Z,20.68
2023-12-15T18:51:56.610Z,20.40
2023-12-15T18:54:24.581Z,21.42
2023-12-15T18:56:55.153Z,23.87
2023-12-15T18:59:23.281Z,21.55
2023-12-15T19:01:51.332Z,18.98
2023-12-15T19:04:19.559Z,20.27
2023-12-15T19:06:47.686Z,19.67
2023-12-15T19:09:16.110Z,17.60
2023-12-15T19:11:44.395Z,18.35
2023-12-15T19:14:14.550Z,20.30
2023-12-15T19:16:42.836Z,22.25
2023-12-15T19:19:12.316Z,20.55
2023-12-15T19:21:40.548Z,22.95
2023-12-15T19:24:09.024Z,40.48
2023-12-15T19:26:37.480Z,28.30
2023-12-15T19:29:05.645Z,18.65
2023-12-15T19:31:33.935Z,17.42
2023-12-15T19:34:06.358Z,17.90
2023-12-15T19:36:42.818Z,16.80
2023-12-15T19:39:11.784Z,19.40
2023-12-15T19:41:40.373Z,19.73
2023-12-15T19:44:09.005Z,21.12
2023-12-15T19:46:38.426Z,19.05
2023-12-15T19:49:09.065Z,19.85
2023-12-15T19:51:40.392Z,19.92
2023-12-15T19:54:16.161Z,20.65
2023-12-15T19:56:40.524Z,21.68
2023-12-15T19:59:11.154Z,22.27
2023-12-15T20:01:44.164Z,26.40
2023-12-15T20:04:12.667Z,24.47
2023-12-15T20:06:40.915Z,22.55
2023-12-15T20:09:08.906Z,19.12
2023-12-15T20:11:40.610Z,20.75
2023-12-15T20:14:08.682Z,27.35
2023-12-15T20:16:42.770Z,22.62
2023-12-15T20:19:11.644Z,22.30
2023-12-15T20:21:39.552Z,23.32
2023-12-15T20:24:08.436Z,20.52
2023-12-15T20:26:36.536Z,18.30
2023-12-15T20:29:06.288Z,18.80
2023-12-15T20:31:34.552Z,17.67
2023-12-15T20:34:04.984Z,17.25
2023-12-15T20:36:33.695Z,15.72
2023-12-15T20:39:01.765Z,14.38
2023-12-15T20:41:30.529Z,14.78
2023-12-15T20:43:59.932Z,16.12
2023-12-15T20:46:30.296Z,14.23
2023-12-15T20:48:59.897Z,14.05
2023-12-15T20:51:43.577Z,13.80
2023-12-15T20:54:29.106Z,12.65
2023-12-15T20:56:57.208Z,18.32
2023-12-15T20:59:29.350Z,17.32
2023-12-15T21:01:57.356Z,17.05
2023-12-15T21:04:25.442Z,17.30
2023-12-15T21:06:53.313Z,16.42
2023-12-15T21:09:21.216Z,17.20
2023-12-15T21:11:49.404Z,15.65
2023-12-15T21:14:17.288Z,16.73
2023-12-15T21:16:45.324Z,16.73
2023-12-15T21:19:13.395Z,15.98
2023-12-15T21:21:43.356Z,16.48
2023-12-15T21:24:11.925Z,19.25
2023-12-15T21:26:39.957Z,22.77
2023-12-15T21:29:08.615Z,27.42
2023-12-15T21:31:36.430Z,26.68
2023-12-15T21:34:05.208Z,30.80
2023-12-15T21:36:34.202Z,32.00
2023-12-15T21:39:03.653Z,37.67
2023-12-15T21:41:31.684Z,41.53
2023-12-15T21:43:59.852Z,43.38
2023-12-15T21:46:27.841Z,45.85
2023-12-15T21:48:56.070Z,42.20
2023-12-15T21:51:26.050Z,41.00
2023-12-15T21:53:55.093Z,35.70
2023-12-15T21:56:23.264Z,41.48
2023-12-15T21:58:56.667Z,39.27
2023-12-15T22:01:26.897Z,41.35
2023-12-15T22:03:55.576Z,45.92
2023-12-15T22:06:23.708Z,49.08
2023-12-15T22:08:52.261Z,44.67
2023-12-15T22:11:20.256Z,54.20
2023-12-15T22:13:48.529Z,43.38
2023-12-15T22:16:16.501Z,42.73
2023-12-15T22:18:44.764Z,53.95
2023-12-15T22:21:13.515Z,52.35
2023-12-15T22:23:44.661Z,47.90
2023-12-15T22:26:13.743Z,42.00
2023-12-15T22:28:42.381Z,37.45
2023-12-15T22:31:10.413Z,33.38
2023-12-15T22:33:38.588Z,34.73
2023-12-15T22:36:07.497Z,31.85
2023-12-15T22:38:37.467Z,33.05
2023-12-15T22:41:05.521Z,33.55
2023-12-15T22:43:33.542Z,37.33
2023-12-15T22:46:02.658Z,34.92
2023-12-15T22:48:31.298Z,33.45
2023-12-15T22:51:01.273Z,33.85
2023-12-15T22:53:29.125Z,33.20
2023-12-15T22:55:56.983Z,32.13
2023-12-15T22:58:24.929Z,27.85
2023-12-15T23:00:52.887Z,22.95
2023-12-15T23:03:21.681Z,19.15
2023-12-15T23:05:49.870Z,17.00
2023-12-15T23:08:17.826Z,16.67
2023-12-15T23:10:45.709Z,16.93
2023-12-15T23:13:14.105Z,17.73
2023-12-15T23:15:42.855Z,17.85
2023-12-15T23:18:10.871Z,23.42
2023-12-15T23:20:38.795Z,23.18
2023-12-15T23:23:06.642Z,54.15
2023-12-15T23:25:34.699Z,37.25
2023-12-15T23:28:02.837Z,33.25
2023-12-15T23:30:30.774Z,34.53
2023-12-15T23:32:58.731Z,32.48
2023-12-15T23:35:26.707Z,33.15
2023-12-15T23:37:54.589Z,33.65
2023-12-15T23:40:22.671Z,35.00
2023-12-15T23:42:50.677Z,28.75
2023-12-15T23:45:18.739Z,26.05
2023-12-15T23:47:46.818Z,23.32
2023-12-15T23:50:14.876Z,22.32
2023-12-15T23:52:42.734Z,21.77
2023-12-15T23:55:10.723Z,19.57
2023-12-15T23:57:40.638Z,20.20
